createdAt,value
2022-10-28T00:01:24.504Z,12.15
2022-10-28T00:03:54.466Z,11.45
2022-10-28T00:06:24.786Z,12.50
2022-10-28T00:08:53.527Z,8.90
2022-10-28T00:11:25.141Z,10.25
2022-10-28T00:13:55.576Z,11.05
2022-10-28T00:16:26.218Z,16.17
2022-10-28T00:18:54.996Z,11.18
2022-10-28T00:21:26.210Z,12.13
2022-10-28T00:23:54.798Z,10.82
2022-10-28T00:26:25.730Z,11.52
2022-10-28T00:28:55.984Z,10.50
2022-10-28T00:31:25.722Z,11.60
2022-10-28T00:33:54.891Z,10.65
2022-10-28T00:36:26.282Z,9.77
2022-10-28T00:38:56.188Z,9.88
2022-10-28T00:41:28.443Z,12.52
2022-10-28T00:43:59.429Z,11.45
2022-10-28T00:46:32.124Z,8.95
2022-10-28T00:49:05.908Z,12.60
2022-10-28T00:51:36.697Z,14.05
2022-10-28T00:54:06.564Z,11.88
2022-10-28T00:56:40.915Z,11.80
2022-10-28T00:59:13.472Z,9.90
2022-10-28T01:01:41.823Z,10.02
2022-10-28T01:04:10.367Z,11.13
2022-10-28T01:06:39.046Z,12.38
2022-10-28T01:09:07.381Z,11.10
2022-10-28T01:11:54.433Z,10.25
2022-10-28T01:14:37.953Z,10.50
2022-10-28T01:17:25.954Z,12.32
2022-10-28T01:20:44.260Z,9.43
2022-10-28T01:23:21.643Z,10.50
2022-10-28T01:26:14.098Z,9.60
2022-10-28T01:29:22.963Z,9.82
2022-10-28T01:31:56.078Z,10.93
2022-10-28T01:34:30.719Z,11.98
2022-10-28T01:37:06.384Z,13.32
2022-10-28T01:39:40.977Z,10.48
2022-10-28T01:42:21.656Z,11.70
2022-10-28T01:44:55.365Z,13.38
2022-10-28T01:47:30.098Z,10.32
2022-10-28T01:50:03.987Z,9.82
2022-10-28T01:52:34.262Z,10.68
2022-10-28T01:55:05.926Z,12.55
2022-10-28T01:57:37.964Z,12.02
2022-10-28T02:00:07.823Z,10.43
2022-10-28T02:02:39.322Z,11.43
2022-10-28T02:05:23.830Z,9.05
2022-10-28T02:07:59.232Z,10.05
2022-10-28T02:10:37.800Z,11.02
2022-10-28T02:13:13.017Z,10.05
2022-10-28T02:15:48.012Z,10.88
2022-10-28T02:18:27.365Z,11.18
2022-10-28T02:21:00.740Z,10.55
2022-10-28T02:23:40.589Z,10.45
2022-10-28T02:26:16.219Z,10.23
2022-10-28T02:28:51.797Z,9.95
2022-10-28T02:31:26.051Z,11.40
2022-10-28T02:34:01.777Z,11.73
2022-10-28T02:36:35.188Z,10.00
2022-10-28T02:39:06.998Z,11.27
2022-10-28T02:41:41.377Z,11.63
2022-10-28T02:44:13.546Z,11.43
2022-10-28T02:46:46.390Z,10.32
2022-10-28T02:49:16.903Z,10.25
2022-10-28T02:51:50.314Z,12.73
2022-10-28T02:54:22.657Z,10.10
2022-10-28T02:56:55.066Z,11.75
2022-10-28T02:59:26.152Z,12.05
2022-10-28T03:01:54.479Z,10.95
2022-10-28T03:04:24.465Z,10.50
2022-10-28T03:06:53.070Z,9.85
2022-10-28T03:09:21.417Z,11.65
2022-10-28T03:11:49.835Z,10.65
2022-10-28T03:14:18.255Z,10.93
2022-10-28T03:16:46.613Z,13.20
2022-10-28T03:19:14.919Z,12.73
2022-10-28T03:21:44.641Z,13.05
2022-10-28T03:24:13.128Z,10.75
2022-10-28T03:26:41.461Z,12.85
2022-10-28T03:29:09.790Z,12.77
2022-10-28T03:31:38.033Z,12.27
2022-10-28T03:34:06.348Z,9.88
2022-10-28T03:36:34.713Z,12.90
2022-10-28T03:39:04.819Z,12.52
2022-10-28T03:41:33.116Z,10.18
2022-10-28T03:44:01.629Z,13.52
2022-10-28T03:46:32.262Z,8.70
2022-10-28T03:49:03.427Z,11.05
2022-10-28T03:51:31.991Z,13.23
2022-10-28T03:54:00.292Z,10.10
2022-10-28T03:56:30.051Z,13.02
2022-10-28T03:58:58.393Z,13.23
2022-10-28T04:01:26.830Z,13.48
2022-10-28T04:03:55.417Z,10.25
2022-10-28T04:06:23.966Z,13.05
2022-10-28T04:08:52.320Z,13.73
2022-10-28T04:11:20.689Z,11.13
2022-10-28T04:13:50.385Z,14.73
2022-10-28T04:16:18.782Z,10.88
2022-10-28T04:18:47.078Z,16.70
2022-10-28T04:21:15.402Z,13.85
2022-10-28T04:23:43.832Z,12.02
2022-10-28T04:26:12.129Z,11.05
2022-10-28T04:28:40.499Z,10.02
2022-10-28T04:31:12.280Z,15.00
2022-10-28T04:33:40.604Z,11.93
2022-10-28T04:36:09.338Z,13.35
2022-10-28T04:38:37.645Z,14.48
2022-10-28T04:41:06.201Z,12.75
2022-10-28T04:43:34.502Z,11.65
2022-10-28T04:46:06.155Z,12.98
2022-10-28T04:48:36.373Z,12.20
2022-10-28T04:51:05.075Z,12.77
2022-10-28T04:53:33.455Z,13.70
2022-10-28T04:56:01.945Z,14.15
2022-10-28T04:58:30.285Z,14.07
2022-10-28T05:00:58.698Z,12.55
2022-10-28T05:03:27.032Z,13.60
2022-10-28T05:05:56.849Z,10.90
2022-10-28T05:08:25.206Z,14.07
2022-10-28T05:10:53.699Z,10.52
2022-10-28T05:13:22.155Z,12.55
2022-10-28T05:15:50.794Z,12.65
2022-10-28T05:18:19.427Z,14.48
2022-10-28T05:20:52.841Z,13.48
2022-10-28T05:23:25.806Z,14.32
2022-10-28T05:25:57.073Z,13.07
2022-10-28T05:28:25.434Z,11.90
2022-10-28T05:30:53.926Z,22.70
2022-10-28T05:33:22.212Z,14.25
2022-10-28T05:35:50.813Z,17.52
2022-10-28T05:38:19.135Z,12.20
2022-10-28T05:40:48.866Z,16.15
2022-10-28T05:43:17.204Z,11.75
2022-10-28T05:45:45.444Z,13.68
2022-10-28T05:48:13.750Z,13.23
2022-10-28T05:50:42.058Z,14.13
2022-10-28T05:53:10.388Z,12.82
2022-10-28T05:55:39.699Z,15.55
2022-10-28T05:58:11.435Z,15.50
2022-10-28T06:00:39.730Z,14.77
2022-10-28T06:03:10.747Z,15.80
2022-10-28T06:05:40.573Z,16.13
2022-10-28T06:08:09.256Z,16.90
2022-10-28T06:10:37.697Z,18.17
2022-10-28T06:13:04.546Z,19.08
2022-10-28T06:15:34.395Z,20.23
2022-10-28T06:18:03.171Z,22.02
2022-10-28T06:20:31.565Z,18.50
2022-10-28T06:23:00.068Z,16.92
2022-10-28T06:25:28.451Z,21.10
2022-10-28T06:27:58.403Z,19.92
2022-10-28T06:30:27.400Z,17.48
2022-10-28T06:32:57.951Z,17.85
2022-10-28T06:35:26.350Z,15.02
2022-10-28T06:37:55.792Z,17.80
2022-10-28T06:40:24.810Z,18.13
2022-10-28T06:42:57.914Z,17.30
2022-10-28T06:45:27.034Z,18.92
2022-10-28T06:47:58.862Z,18.10
2022-10-28T06:50:28.326Z,21.17
2022-10-28T06:52:57.944Z,15.93
2022-10-28T06:55:26.978Z,18.67
2022-10-28T06:57:56.265Z,16.40
2022-10-28T07:00:24.806Z,16.38
2022-10-28T07:02:55.004Z,17.85
2022-10-28T07:05:26.495Z,20.17
2022-10-28T07:07:55.480Z,18.95
2022-10-28T07:10:24.320Z,16.75
2022-10-28T07:12:54.259Z,17.23
2022-10-28T07:15:23.153Z,21.23
2022-10-28T07:17:54.610Z,19.33
2022-10-28T07:20:25.393Z,20.55
2022-10-28T07:22:58.114Z,20.27
2022-10-28T07:25:26.783Z,17.77
2022-10-28T07:27:55.414Z,18.25
2022-10-28T07:30:24.030Z,19.23
2022-10-28T07:32:52.724Z,15.45
2022-10-28T07:35:21.820Z,13.95
2022-10-28T07:37:51.868Z,15.02
2022-10-28T07:40:21.037Z,12.27
2022-10-28T07:42:49.524Z,13.90
2022-10-28T07:45:18.740Z,14.55
2022-10-28T07:47:47.106Z,14.55
2022-10-28T07:50:15.435Z,10.43
2022-10-28T07:52:44.087Z,11.73
2022-10-28T07:55:14.343Z,13.85
2022-10-28T07:57:43.069Z,11.15
2022-10-28T08:00:12.763Z,10.38
2022-10-28T08:02:41.444Z,14.70
2022-10-28T08:05:10.194Z,13.40
2022-10-28T08:07:39.058Z,12.82
2022-10-28T08:10:09.160Z,13.55
2022-10-28T08:12:38.858Z,13.52
2022-10-28T08:15:10.554Z,12.98
2022-10-28T08:17:38.950Z,13.45
2022-10-28T08:20:08.016Z,17.70
2022-10-28T08:22:36.252Z,17.48
2022-10-28T08:25:05.572Z,14.93
2022-10-28T08:27:33.886Z,13.98
2022-10-28T08:30:03.523Z,15.55
2022-10-28T08:32:32.105Z,18.60
2022-10-28T08:35:00.380Z,17.08
2022-10-28T08:37:28.729Z,12.43
2022-10-28T08:39:57.131Z,15.20
2022-10-28T08:42:38.929Z,15.20
2022-10-28T08:45:22.681Z,15.88
2022-10-28T08:50:37.250Z,16.20
2022-10-28T08:53:13.698Z,15.30
2022-10-28T08:55:45.027Z,15.57
2022-10-28T08:58:19.050Z,16.38
2022-10-28T09:00:53.821Z,16.75
2022-10-28T09:03:25.304Z,15.75
2022-10-28T09:06:00.741Z,22.20
2022-10-28T09:08:32.287Z,14.85
2022-10-28T09:11:26.276Z,15.07
2022-10-28T09:14:09.898Z,17.25
2022-10-28T09:16:47.006Z,12.40
2022-10-28T09:19:22.792Z,16.88
2022-10-28T09:21:58.223Z,24.75
2022-10-28T09:24:39.896Z,19.08
2022-10-28T09:27:18.558Z,20.73
2022-10-28T09:29:54.063Z,15.60
2022-10-28T09:32:32.221Z,16.33
2022-10-28T09:35:06.522Z,19.50
2022-10-28T09:37:39.266Z,21.95
2022-10-28T09:40:18.395Z,29.92
2022-10-28T09:42:53.317Z,23.80
2022-10-28T09:45:24.901Z,25.15
2022-10-28T09:47:59.558Z,25.80
2022-10-28T09:50:31.666Z,20.40
2022-10-28T09:53:06.170Z,22.02
2022-10-28T09:55:35.129Z,21.83
2022-10-28T09:58:05.043Z,20.33
2022-10-28T10:00:33.709Z,25.30
2022-10-28T10:03:03.525Z,21.65
2022-10-28T10:05:34.498Z,18.98
2022-10-28T10:08:06.139Z,25.17
2022-10-28T10:10:49.196Z,17.15
2022-10-28T10:13:20.112Z,22.30
2022-10-28T10:15:53.947Z,18.42
2022-10-28T10:18:26.139Z,22.08
2022-10-28T10:20:58.067Z,17.98
2022-10-28T10:23:31.069Z,17.00
2022-10-28T10:26:05.592Z,13.50
2022-10-28T10:28:39.934Z,14.20
2022-10-28T10:31:17.661Z,19.23
2022-10-28T10:33:51.023Z,17.55
2022-10-28T10:36:23.770Z,17.48
2022-10-28T10:38:55.319Z,18.55
2022-10-28T10:41:42.814Z,17.85
2022-10-28T10:44:33.788Z,16.83
2022-10-28T10:47:22.800Z,15.10
2022-10-28T10:49:52.635Z,14.50
2022-10-28T10:52:26.264Z,12.50
2022-10-28T10:55:05.300Z,15.75
2022-10-28T10:57:34.624Z,10.55
2022-10-28T11:00:03.149Z,11.43
2022-10-28T11:02:35.951Z,18.23
2022-10-28T11:05:10.006Z,16.17
2022-10-28T11:07:41.077Z,17.38
2022-10-28T11:10:24.549Z,15.82
2022-10-28T11:12:55.357Z,13.20
2022-10-28T11:15:26.864Z,15.98
2022-10-28T11:18:00.924Z,11.00
2022-10-28T11:20:40.888Z,16.50
2022-10-28T11:23:28.628Z,13.57
2022-10-28T11:26:02.591Z,11.85
2022-10-28T11:28:49.238Z,19.40
2022-10-28T11:31:53.508Z,9.95
2022-10-28T11:34:41.291Z,14.55
2022-10-28T11:37:17.253Z,11.38
2022-10-28T11:39:59.316Z,15.55
2022-10-28T11:42:37.529Z,13.20
2022-10-28T11:45:12.597Z,14.65
2022-10-28T11:48:11.363Z,16.23
2022-10-28T11:50:55.593Z,11.75
2022-10-28T11:54:02.078Z,11.65
2022-10-28T11:56:36.859Z,10.48
2022-10-28T11:59:21.875Z,12.95
2022-10-28T12:02:01.888Z,11.65
2022-10-28T12:04:53.898Z,15.65
2022-10-28T12:07:58.966Z,11.00
2022-10-28T12:10:49.818Z,11.63
2022-10-28T12:13:28.228Z,13.82
2022-10-28T12:16:00.956Z,12.75
2022-10-28T12:18:34.446Z,12.27
2022-10-28T12:21:09.688Z,14.65
2022-10-28T12:23:40.458Z,12.30
2022-10-28T12:26:16.501Z,10.10
2022-10-28T12:28:48.814Z,7.72
2022-10-28T12:31:24.230Z,7.22
2022-10-28T12:33:56.743Z,10.07
2022-10-28T12:36:33.744Z,11.75
2022-10-28T12:39:06.105Z,6.90
2022-10-28T12:41:51.287Z,7.95
2022-10-28T12:44:22.437Z,9.93
2022-10-28T12:47:01.467Z,9.38
2022-10-28T12:49:38.132Z,11.65
2022-10-28T12:52:15.326Z,9.50
2022-10-28T12:54:54.054Z,12.05
2022-10-28T12:57:25.660Z,8.50
2022-10-28T12:59:57.994Z,10.90
2022-10-28T13:02:31.661Z,6.72
2022-10-28T13:05:00.477Z,9.95
2022-10-28T13:08:00.131Z,9.40
2022-10-28T13:10:38.707Z,6.53
2022-10-28T13:13:30.275Z,7.32
2022-10-28T13:16:32.811Z,7.38
2022-10-28T13:19:27.395Z,9.77
2022-10-28T13:25:01.908Z,10.48
2022-10-28T13:27:30.795Z,8.77
2022-10-28T13:30:03.583Z,10.63
2022-10-28T13:32:38.359Z,14.60
2022-10-28T13:35:16.464Z,11.52
2022-10-28T13:37:48.867Z,10.20
2022-10-28T13:40:44.940Z,8.90
2022-10-28T13:43:21.037Z,8.80
2022-10-28T13:45:53.810Z,12.60
2022-10-28T13:48:48.062Z,11.77
2022-10-28T13:51:35.354Z,9.63
2022-10-28T13:54:03.719Z,9.43
2022-10-28T13:56:47.156Z,9.95
2022-10-28T13:59:23.245Z,8.32
2022-10-28T14:02:07.475Z,7.10
2022-10-28T14:04:39.596Z,11.27
2022-10-28T14:07:21.666Z,13.88
2022-10-28T14:09:54.262Z,15.75
2022-10-28T14:12:33.346Z,12.10
2022-10-28T14:15:07.011Z,8.60
2022-10-28T14:17:41.888Z,7.53
2022-10-28T14:20:33.709Z,10.32
2022-10-28T14:23:03.081Z,10.63
2022-10-28T14:26:00.555Z,12.48
2022-10-28T14:28:52.154Z,14.68
2022-10-28T14:31:53.448Z,9.48
2022-10-28T14:34:45.198Z,7.35
2022-10-28T14:37:51.902Z,7.22
2022-10-28T14:40:36.347Z,10.68
2022-10-28T14:43:19.365Z,8.18
2022-10-28T14:46:01.998Z,7.80
2022-10-28T14:48:48.214Z,8.85
2022-10-28T14:51:20.722Z,6.82
2022-10-28T14:53:49.702Z,9.10
2022-10-28T14:58:53.707Z,21.98
2022-10-28T15:01:25.695Z,37.45
2022-10-28T15:03:57.856Z,35.90
2022-10-28T15:06:33.721Z,21.88
2022-10-28T15:09:17.292Z,16.60
2022-10-28T15:11:48.624Z,15.80
2022-10-28T15:14:26.060Z,14.77
2022-10-28T15:16:54.700Z,10.57
2022-10-28T15:19:25.284Z,12.43
2022-10-28T15:22:13.670Z,16.05
2022-10-28T15:24:44.778Z,10.77
2022-10-28T15:27:16.465Z,10.90
2022-10-28T15:29:44.915Z,15.05
2022-10-28T15:32:16.363Z,12.20
2022-10-28T15:34:45.281Z,24.88
2022-10-28T15:37:20.909Z,28.05
2022-10-28T15:39:52.485Z,21.15
2022-10-28T15:42:40.399Z,19.88
2022-10-28T15:45:19.010Z,17.00
2022-10-28T15:47:48.580Z,15.77
2022-10-28T15:50:31.380Z,16.33
2022-10-28T15:53:24.121Z,17.60
2022-10-28T15:56:22.942Z,21.02
2022-10-28T15:59:04.291Z,24.83
2022-10-28T16:01:39.616Z,25.48
2022-10-28T16:04:28.806Z,26.75
2022-10-28T16:06:58.970Z,23.02
2022-10-28T16:09:32.351Z,24.02
2022-10-28T16:12:04.689Z,23.25
2022-10-28T16:14:38.022Z,61.67
2022-10-28T16:17:15.940Z,44.63
2022-10-28T16:19:47.931Z,35.05
2022-10-28T16:22:18.454Z,24.58
2022-10-28T16:24:48.402Z,26.23
2022-10-28T16:27:22.280Z,21.98
2022-10-28T16:29:51.329Z,22.73
2022-10-28T16:32:26.324Z,18.77
2022-10-28T16:34:54.624Z,21.05
2022-10-28T16:37:25.871Z,18.02
2022-10-28T16:39:57.820Z,20.98
2022-10-28T16:42:26.303Z,18.02
2022-10-28T16:44:54.685Z,14.82
2022-10-28T16:47:26.746Z,14.48
2022-10-28T16:49:57.456Z,10.93
2022-10-28T16:52:27.902Z,12.15
2022-10-28T16:54:58.092Z,10.40
2022-10-28T16:57:26.922Z,9.98
2022-10-28T16:59:55.690Z,10.80
2022-10-28T17:02:27.806Z,9.98
2022-10-28T17:04:56.689Z,7.18
2022-10-28T17:07:25.507Z,9.05
2022-10-28T17:09:53.987Z,8.85
2022-10-28T17:12:25.154Z,6.55
2022-10-28T17:14:53.777Z,6.78
2022-10-28T17:17:22.318Z,6.43
2022-10-28T17:19:50.617Z,8.50
2022-10-28T17:22:18.916Z,7.63
2022-10-28T17:24:47.286Z,7.85
2022-10-28T17:27:15.892Z,8.13
2022-10-28T17:29:46.021Z,6.75
2022-10-28T17:32:14.441Z,8.60
2022-10-28T17:34:42.816Z,6.32
2022-10-28T17:37:11.390Z,10.90
2022-10-28T17:39:39.726Z,9.70
2022-10-28T17:42:08.032Z,7.53
2022-10-28T17:44:36.731Z,8.25
2022-10-28T17:47:06.489Z,8.23
2022-10-28T17:49:36.641Z,8.95
2022-10-28T17:52:05.048Z,10.02
2022-10-28T17:54:33.390Z,8.45
2022-10-28T17:57:01.796Z,8.85
2022-10-28T17:59:30.176Z,8.00
2022-10-28T18:01:58.690Z,7.10
2022-10-28T18:04:30.286Z,8.85
2022-10-28T18:06:59.362Z,8.50
2022-10-28T18:09:31.750Z,6.75
2022-10-28T18:12:02.080Z,9.27
2022-10-28T18:14:30.755Z,6.60
2022-10-28T18:16:59.196Z,8.57
2022-10-28T18:19:29.021Z,8.30
2022-10-28T18:21:57.370Z,9.27
2022-10-28T18:24:26.043Z,7.82
2022-10-28T18:26:57.039Z,8.10
2022-10-28T18:29:25.641Z,6.43
2022-10-28T18:31:53.935Z,8.82
2022-10-28T18:34:23.832Z,7.15
2022-10-28T18:36:53.640Z,8.55
2022-10-28T18:39:21.979Z,6.32
2022-10-28T18:41:51.579Z,10.95
2022-10-28T18:44:24.263Z,8.25
2022-10-28T18:46:52.584Z,7.95
2022-10-28T18:49:20.888Z,6.97
2022-10-28T18:51:49.220Z,6.78
2022-10-28T18:54:18.934Z,8.38
2022-10-28T18:56:47.940Z,8.80
2022-10-28T18:59:16.670Z,6.30
2022-10-28T19:01:47.212Z,8.05
2022-10-28T19:04:15.783Z,8.30
2022-10-28T19:06:44.117Z,7.70
2022-10-28T19:09:12.343Z,6.28
2022-10-28T19:11:42.156Z,7.45
2022-10-28T19:14:11.210Z,7.43
2022-10-28T19:16:39.537Z,8.38
2022-10-28T19:19:08.614Z,7.55
2022-10-28T19:21:36.991Z,8.13
2022-10-28T19:24:05.678Z,7.00
2022-10-28T19:26:34.941Z,5.32
2022-10-28T19:29:05.565Z,8.75
2022-10-28T19:31:39.118Z,5.30
2022-10-28T19:34:07.592Z,9.02
2022-10-28T19:36:36.028Z,8.05
2022-10-28T19:39:04.938Z,8.40
2022-10-28T19:41:33.717Z,6.97
2022-10-28T19:44:04.811Z,6.40
2022-10-28T19:46:35.097Z,8.30
2022-10-28T19:49:05.862Z,7.38
2022-10-28T19:51:35.583Z,5.65
2022-10-28T19:54:06.129Z,6.40
2022-10-28T19:56:35.783Z,4.63
2022-10-28T19:59:07.290Z,6.82
2022-10-28T20:01:37.583Z,5.90
2022-10-28T20:04:07.096Z,8.50
2022-10-28T20:06:36.827Z,6.30
2022-10-28T20:09:05.501Z,6.03
2022-10-28T20:11:35.780Z,4.57
2022-10-28T20:14:08.592Z,5.35
2022-10-28T20:16:37.542Z,6.53
2022-10-28T20:19:06.328Z,5.60
2022-10-28T20:21:35.268Z,4.75
2022-10-28T20:24:07.173Z,7.18
2022-10-28T20:26:37.737Z,7.72
2022-10-28T20:29:09.852Z,7.25
2022-10-28T20:31:40.070Z,4.72
2022-10-28T20:34:09.211Z,4.55
2022-10-28T20:36:39.171Z,6.78
2022-10-28T20:39:09.331Z,5.05
2022-10-28T20:41:39.365Z,6.25
2022-10-28T20:44:10.044Z,5.35
2022-10-28T20:46:38.858Z,4.22
2022-10-28T20:49:08.763Z,4.97
2022-10-28T20:51:37.603Z,4.97
2022-10-28T20:54:06.436Z,3.83
2022-10-28T20:56:36.373Z,5.32
2022-10-28T20:59:05.445Z,3.78
2022-10-28T21:01:36.670Z,4.90
2022-10-28T21:04:07.002Z,4.32
2022-10-28T21:06:35.707Z,3.42
2022-10-28T21:09:05.149Z,4.72
2022-10-28T21:11:33.569Z,4.18
2022-10-28T21:14:03.118Z,3.90
2022-10-28T21:16:31.792Z,4.43
2022-10-28T21:19:01.873Z,3.65
2022-10-28T21:21:31.426Z,3.83
2022-10-28T21:23:59.875Z,3.92
2022-10-28T21:26:28.379Z,3.22
2022-10-28T21:28:57.510Z,4.35
2022-10-28T21:31:26.276Z,4.10
2022-10-28T21:33:54.701Z,3.30
2022-10-28T21:36:24.602Z,4.50
2022-10-28T21:38:56.073Z,3.80
2022-10-28T21:41:25.878Z,4.10
2022-10-28T21:43:55.443Z,3.88
2022-10-28T21:46:24.362Z,3.60
2022-10-28T21:48:53.635Z,4.05
2022-10-28T21:51:23.593Z,3.03
2022-10-28T21:53:52.013Z,4.20
2022-10-28T21:56:21.259Z,3.47
2022-10-28T21:58:51.063Z,3.70
2022-10-28T22:01:21.947Z,3.38
2022-10-28T22:03:51.139Z,3.65
2022-10-28T22:06:19.631Z,4.15
2022-10-28T22:08:49.605Z,2.70
2022-10-28T22:11:19.593Z,2.55
2022-10-28T22:13:48.405Z,4.32
2022-10-28T22:16:19.950Z,4.00
2022-10-28T22:18:48.598Z,4.00
2022-10-28T22:21:18.588Z,3.83
2022-10-28T22:23:49.188Z,3.22
2022-10-28T22:26:20.027Z,4.03
2022-10-28T22:28:49.056Z,4.65
2022-10-28T22:31:19.337Z,4.20
2022-10-28T22:33:48.287Z,4.72
2022-10-28T22:36:18.664Z,4.03
2022-10-28T22:38:49.336Z,3.35
2022-10-28T22:41:19.314Z,3.20
2022-10-28T22:43:50.940Z,5.70
2022-10-28T22:46:19.807Z,3.92
2022-10-28T22:48:48.533Z,3.50
2022-10-28T22:51:17.509Z,3.55
2022-10-28T22:53:46.448Z,3.38
2022-10-28T22:56:20.230Z,2.90
2022-10-28T22:58:49.613Z,4.07
2022-10-28T23:01:19.982Z,2.72
2022-10-28T23:03:50.499Z,5.00
2022-10-28T23:06:20.513Z,4.50
2022-10-28T23:08:49.209Z,3.58
2022-10-28T23:11:20.721Z,4.13
2022-10-28T23:13:52.969Z,3.08
2022-10-28T23:16:22.123Z,3.92
2022-10-28T23:18:52.867Z,4.72
2022-10-28T23:21:23.181Z,3.60
2022-10-28T23:23:54.426Z,3.17
2022-10-28T23:26:24.755Z,5.60
2022-10-28T23:28:54.422Z,2.72
2022-10-28T23:31:23.484Z,4.43
2022-10-28T23:33:52.220Z,4.30
2022-10-28T23:36:20.589Z,4.65
2022-10-28T23:38:49.056Z,3.45
2022-10-28T23:41:18.970Z,3.75
2022-10-28T23:43:50.630Z,6.70
2022-10-28T23:46:19.719Z,3.15
2022-10-28T23:48:48.163Z,2.45
2022-10-28T23:51:16.563Z,5.03
2022-10-28T23:53:45.098Z,3.53
2022-10-28T23:56:13.448Z,2.92
2022-10-28T23:58:41.991Z,3.22
